createdAt,value
2023-06-04T00:00:17.715Z,1014.30
2023-06-04T00:01:17.684Z,1014.22
2023-06-04T00:02:17.720Z,1014.26
2023-06-04T00:03:17.763Z,1014.29
2023-06-04T00:04:17.672Z,1014.26
2023-06-04T00:05:17.661Z,1014.31
2023-06-04T00:06:17.634Z,1014.26
2023-06-04T00:07:17.596Z,1014.36
2023-06-04T00:08:17.639Z,1014.29
2023-06-04T00:09:17.600Z,1014.28
2023-06-04T00:10:17.578Z,1014.29
2023-06-04T00:11:17.579Z,1014.32
2023-06-04T00:12:17.605Z,1014.20
2023-06-04T00:13:17.564Z,1014.29
2023-06-04T00:14:17.562Z,1014.14
2023-06-04T00:15:17.565Z,1014.18
2023-06-04T00:16:17.614Z,1014.14
2023-06-04T00:17:17.560Z,1014.16
2023-06-04T00:18:17.484Z,1014.12
2023-06-04T00:19:17.491Z,1014.14
2023-06-04T00:20:17.513Z,1014.07
2023-06-04T00:21:17.448Z,1014.13
2023-06-04T00:22:17.448Z,1014.13
2023-06-04T00:23:17.472Z,1014.13
2023-06-04T00:24:17.424Z,1014.14
2023-06-04T00:25:17.465Z,1014.19
2023-06-04T00:26:17.403Z,1014.13
2023-06-04T00:27:17.388Z,1014.10
2023-06-04T00:28:17.381Z,1014.09
2023-06-04T00:29:17.385Z,1014.11
2023-06-04T00:30:17.419Z,1014.13
2023-06-04T00:31:17.402Z,1014.11
2023-06-04T00:32:17.487Z,1014.15
2023-06-04T00:33:17.400Z,1014.15
2023-06-04T00:34:17.310Z,1014.16
2023-06-04T00:35:17.300Z,1014.16
2023-06-04T00:36:17.374Z,1014.16
2023-06-04T00:37:17.298Z,1014.13
2023-06-04T00:38:17.276Z,1014.14
2023-06-04T00:39:17.276Z,1014.18
2023-06-04T00:40:17.286Z,1014.15
2023-06-04T00:41:17.249Z,1014.18
2023-06-04T00:42:17.229Z,1014.17
2023-06-04T00:43:17.245Z,1014.17
2023-06-04T00:44:17.225Z,1014.25
2023-06-04T00:45:17.227Z,1014.23
2023-06-04T00:46:17.229Z,1014.28
2023-06-04T00:47:17.184Z,1014.26
2023-06-04T00:48:17.195Z,1014.23
2023-06-04T00:49:17.178Z,1014.17
2023-06-04T00:50:17.172Z,1014.25
2023-06-04T00:51:17.174Z,1014.20
2023-06-04T00:52:17.126Z,1014.14
2023-06-04T00:53:17.112Z,1014.16
2023-06-04T00:54:17.109Z,1014.15
2023-06-04T00:55:17.103Z,1014.14
2023-06-04T00:56:17.096Z,1014.12
2023-06-04T00:57:17.106Z,1014.11
2023-06-04T00:58:17.126Z,1014.10
2023-06-04T00:59:17.126Z,1014.03
2023-06-04T01:00:17.051Z,1014.09
2023-06-04T01:01:17.075Z,1014.10
2023-06-04T01:02:17.036Z,1014.12
2023-06-04T01:03:17.042Z,1014.07
2023-06-04T01:04:16.981Z,1014.08
2023-06-04T01:05:16.978Z,1014.05
2023-06-04T01:06:16.968Z,1014.03
2023-06-04T01:07:16.994Z,1014.03
2023-06-04T01:08:16.943Z,1014.09
2023-06-04T01:09:16.993Z,1014.10
2023-06-04T01:10:16.952Z,1014.07
2023-06-04T01:11:16.926Z,1014.08
2023-06-04T01:12:16.928Z,1014.06
2023-06-04T01:13:16.938Z,1014.10
2023-06-04T01:14:16.885Z,1014.04
2023-06-04T01:15:16.887Z,1014.09
2023-06-04T01:16:16.850Z,1014.10
2023-06-04T01:17:16.976Z,1014.08
2023-06-04T01:18:16.835Z,1014.06
2023-06-04T01:19:16.830Z,1014.08
2023-06-04T01:20:16.820Z,1014.12
2023-06-04T01:21:16.806Z,1014.11
2023-06-04T01:22:16.829Z,1014.08
2023-06-04T01:23:16.823Z,1014.10
2023-06-04T01:24:16.778Z,1014.07
2023-06-04T01:25:16.769Z,1014.12
2023-06-04T01:26:16.748Z,1014.09
2023-06-04T01:27:16.804Z,1014.06
2023-06-04T01:28:16.737Z,1014.11
2023-06-04T01:29:16.723Z,1014.11
2023-06-04T01:30:16.708Z,1014.14
2023-06-04T01:31:16.727Z,1014.13
2023-06-04T01:32:16.686Z,1014.11
2023-06-04T01:33:16.731Z,1014.15
2023-06-04T01:34:16.668Z,1014.17
2023-06-04T01:35:16.681Z,1014.17
2023-06-04T01:36:16.646Z,1014.16
2023-06-04T01:37:16.630Z,1014.23
2023-06-04T01:38:16.636Z,1014.19
2023-06-04T01:39:16.674Z,1014.20
2023-06-04T01:40:16.629Z,1014.22
2023-06-04T01:41:16.605Z,1014.18
2023-06-04T01:42:16.577Z,1014.19
2023-06-04T01:43:16.580Z,1014.13
2023-06-04T01:44:16.659Z,1014.12
2023-06-04T01:45:16.549Z,1014.16
2023-06-04T01:46:16.564Z,1014.19
2023-06-04T01:47:16.559Z,1014.16
2023-06-04T01:48:16.652Z,1014.13
2023-06-04T01:49:16.572Z,1014.13
2023-06-04T01:50:16.498Z,1014.09
2023-06-04T01:51:16.495Z,1014.14
2023-06-04T01:52:16.506Z,1014.12
2023-06-04T01:53:16.469Z,1014.08
2023-06-04T01:54:16.442Z,1014.05
2023-06-04T01:55:16.605Z,1014.04
2023-06-04T01:56:16.469Z,1014.08
2023-06-04T01:57:16.427Z,1014.02
2023-06-04T01:58:16.433Z,1014.02
2023-06-04T01:59:16.394Z,1014.05
2023-06-04T02:00:16.385Z,1014.06
2023-06-04T02:01:16.408Z,1014.03
2023-06-04T02:02:16.392Z,1014.06
2023-06-04T02:03:16.422Z,1014.07
2023-06-04T02:04:16.399Z,1014.06
2023-06-04T02:05:16.373Z,1014.07
2023-06-04T02:06:16.322Z,1014.06
2023-06-04T02:07:16.320Z,1014.07
2023-06-04T02:08:16.298Z,1014.09
2023-06-04T02:09:16.363Z,1014.05
2023-06-04T02:10:16.382Z,1014.05
2023-06-04T02:11:16.296Z,1014.06
2023-06-04T02:12:16.262Z,1014.12
2023-06-04T02:13:16.248Z,1014.13
2023-06-04T02:14:16.268Z,1014.13
2023-06-04T02:15:16.224Z,1014.10
2023-06-04T02:16:16.329Z,1014.13
2023-06-04T02:17:16.207Z,1014.14
2023-06-04T02:18:16.190Z,1014.12
2023-06-04T02:19:16.185Z,1014.16
2023-06-04T02:20:16.300Z,1014.10
2023-06-04T02:21:16.172Z,1014.14
2023-06-04T02:22:16.358Z,1014.14
2023-06-04T02:23:16.267Z,1014.10
2023-06-04T02:24:16.122Z,1014.16
2023-06-04T02:25:16.117Z,1014.14
2023-06-04T02:26:16.108Z,1014.13
2023-06-04T02:27:16.095Z,1014.16
2023-06-04T02:28:16.156Z,1014.11
2023-06-04T02:29:16.078Z,1014.23
2023-06-04T02:30:16.096Z,1014.20
2023-06-04T02:31:16.157Z,1014.15
2023-06-04T02:32:16.073Z,1014.16
2023-06-04T02:33:16.093Z,1014.19
2023-06-04T02:34:16.022Z,1014.18
2023-06-04T02:35:16.025Z,1014.24
2023-06-04T02:36:16.036Z,1014.20
2023-06-04T02:37:16.003Z,1014.23
2023-06-04T02:38:15.980Z,1014.25
2023-06-04T02:39:15.967Z,1014.22
2023-06-04T02:40:15.984Z,1014.22
2023-06-04T02:41:15.952Z,1014.29
2023-06-04T02:42:15.969Z,1014.26
2023-06-04T02:43:15.928Z,1014.23
2023-06-04T02:44:15.921Z,1014.25
2023-06-04T02:45:15.912Z,1014.27
2023-06-04T02:46:15.967Z,1014.20
2023-06-04T02:47:15.888Z,1014.23
2023-06-04T02:48:15.933Z,1014.25
2023-06-04T02:49:15.871Z,1014.24
2023-06-04T02:50:15.841Z,1014.20
2023-06-04T02:51:15.838Z,1014.21
2023-06-04T02:52:15.829Z,1014.18
2023-06-04T02:53:15.879Z,1014.20
2023-06-04T02:54:15.807Z,1014.18
2023-06-04T02:55:15.813Z,1014.21
2023-06-04T02:56:15.799Z,1014.22
2023-06-04T02:57:15.827Z,1014.25
2023-06-04T02:58:15.789Z,1014.24
2023-06-04T02:59:15.758Z,1014.23
2023-06-04T03:00:15.795Z,1014.24
2023-06-04T03:01:15.743Z,1014.25
2023-06-04T03:02:15.739Z,1014.25
2023-06-04T03:03:15.800Z,1014.23
2023-06-04T03:04:15.700Z,1014.26
2023-06-04T03:05:15.698Z,1014.27
2023-06-04T03:06:15.705Z,1014.24
2023-06-04T03:07:15.701Z,1014.30
2023-06-04T03:08:15.693Z,1014.28
2023-06-04T03:09:15.641Z,1014.26
2023-06-04T03:10:15.638Z,1014.31
2023-06-04T03:11:15.626Z,1014.29
2023-06-04T03:12:15.614Z,1014.30
2023-06-04T03:13:15.626Z,1014.30
2023-06-04T03:14:15.584Z,1014.33
2023-06-04T03:15:15.579Z,1014.31
2023-06-04T03:16:15.655Z,1014.30
2023-06-04T03:17:15.561Z,1014.28
2023-06-04T03:18:15.596Z,1014.30
2023-06-04T03:19:15.532Z,1014.27
2023-06-04T03:20:15.517Z,1014.28
2023-06-04T03:21:15.522Z,1014.29
2023-06-04T03:22:15.500Z,1014.32
2023-06-04T03:23:15.594Z,1014.22
2023-06-04T03:24:15.481Z,1014.26
2023-06-04T03:25:15.474Z,1014.26
2023-06-04T03:26:15.525Z,1014.22
2023-06-04T03:27:15.453Z,1014.24
2023-06-04T03:28:15.442Z,1014.20
2023-06-04T03:29:15.488Z,1014.23
2023-06-04T03:30:15.410Z,1014.20
2023-06-04T03:31:15.439Z,1014.28
2023-06-04T03:32:15.395Z,1014.26
2023-06-04T03:33:15.421Z,1014.23
2023-06-04T03:34:15.382Z,1014.22
2023-06-04T03:35:15.372Z,1014.23
2023-06-04T03:36:15.358Z,1014.25
2023-06-04T03:37:15.346Z,1014.25
2023-06-04T03:38:15.335Z,1014.25
2023-06-04T03:39:15.351Z,1014.26
2023-06-04T03:40:15.310Z,1014.17
2023-06-04T03:41:15.294Z,1014.24
2023-06-04T03:42:15.289Z,1014.26
2023-06-04T03:43:15.277Z,1014.27
2023-06-04T03:44:15.319Z,1014.31
2023-06-04T03:45:15.270Z,1014.21
2023-06-04T03:46:15.331Z,1014.26
2023-06-04T03:47:15.284Z,1014.23
2023-06-04T03:48:15.215Z,1014.27
2023-06-04T03:49:15.222Z,1014.24
2023-06-04T03:50:15.267Z,1014.24
2023-06-04T03:51:15.221Z,1014.24
2023-06-04T03:52:15.190Z,1014.26
2023-06-04T03:53:15.192Z,1014.29
2023-06-04T03:54:15.194Z,1014.31
2023-06-04T03:55:15.153Z,1014.34
2023-06-04T03:56:15.170Z,1014.34
2023-06-04T03:57:15.125Z,1014.36
2023-06-04T03:58:15.238Z,1014.41
2023-06-04T03:59:15.168Z,1014.37
2023-06-04T04:00:15.088Z,1014.36
2023-06-04T04:01:15.089Z,1014.35
2023-06-04T04:02:15.108Z,1014.36
2023-06-04T04:03:15.176Z,1014.35
2023-06-04T04:04:15.973Z,1014.35
2023-06-04T04:05:17.029Z,1014.32
2023-06-04T04:06:15.036Z,1014.33
2023-06-04T04:07:15.050Z,1014.35
2023-06-04T04:08:14.998Z,1014.35
2023-06-04T04:09:15.002Z,1014.34
2023-06-04T04:10:14.981Z,1014.34
2023-06-04T04:11:14.983Z,1014.34
2023-06-04T04:12:15.033Z,1014.35
2023-06-04T04:13:14.951Z,1014.39
2023-06-04T04:14:14.934Z,1014.35
2023-06-04T04:15:14.941Z,1014.33
2023-06-04T04:16:15.048Z,1014.35
2023-06-04T04:17:14.966Z,1014.34
2023-06-04T04:18:14.937Z,1014.35
2023-06-04T04:19:14.886Z,1014.38
2023-06-04T04:20:14.873Z,1014.35
2023-06-04T04:21:14.888Z,1014.36
2023-06-04T04:22:14.852Z,1014.34
2023-06-04T04:23:14.860Z,1014.33
2023-06-04T04:24:14.866Z,1014.35
2023-06-04T04:25:14.840Z,1014.38
2023-06-04T04:26:14.909Z,1014.37
2023-06-04T04:27:14.803Z,1014.34
2023-06-04T04:28:14.797Z,1014.34
2023-06-04T04:29:14.805Z,1014.32
2023-06-04T04:30:14.798Z,1014.35
2023-06-04T04:31:14.789Z,1014.39
2023-06-04T04:32:14.746Z,1014.34
2023-06-04T04:33:14.736Z,1014.31
2023-06-04T04:34:14.745Z,1014.32
2023-06-04T04:35:14.824Z,1014.34
2023-06-04T04:36:14.715Z,1014.30
2023-06-04T04:37:14.692Z,1014.28
2023-06-04T04:38:14.693Z,1014.26
2023-06-04T04:39:14.681Z,1014.24
2023-06-04T04:40:14.679Z,1014.27
2023-06-04T04:41:14.643Z,1014.28
2023-06-04T04:42:14.678Z,1014.27
2023-06-04T04:43:14.641Z,1014.30
2023-06-04T04:44:14.646Z,1014.31
2023-06-04T04:45:14.603Z,1014.34
2023-06-04T04:46:14.678Z,1014.34
2023-06-04T04:47:14.584Z,1014.34
2023-06-04T04:48:14.581Z,1014.31
2023-06-04T04:49:14.575Z,1014.35
2023-06-04T04:50:14.558Z,1014.31
2023-06-04T04:51:14.583Z,1014.36
2023-06-04T04:52:14.528Z,1014.33
2023-06-04T04:53:14.542Z,1014.37
2023-06-04T04:54:14.534Z,1014.36
2023-06-04T04:55:14.541Z,1014.37
2023-06-04T04:56:14.501Z,1014.37
2023-06-04T04:57:14.596Z,1014.42
2023-06-04T04:58:14.462Z,1014.42
2023-06-04T04:59:14.489Z,1014.37
2023-06-04T05:00:14.442Z,1014.39
2023-06-04T05:01:14.437Z,1014.39
2023-06-04T05:02:14.435Z,1014.35
2023-06-04T05:03:14.407Z,1014.38
2023-06-04T05:04:14.437Z,1014.39
2023-06-04T05:05:14.413Z,1014.39
2023-06-04T05:06:14.390Z,1014.35
2023-06-04T05:07:14.406Z,1014.36
2023-06-04T05:08:14.372Z,1014.34
2023-06-04T05:09:14.347Z,1014.35
2023-06-04T05:10:14.470Z,1014.38
2023-06-04T05:11:14.317Z,1014.36
2023-06-04T05:12:14.316Z,1014.39
2023-06-04T05:13:14.302Z,1014.39
2023-06-04T05:14:14.306Z,1014.45
2023-06-04T05:15:14.269Z,1014.44
2023-06-04T05:16:14.398Z,1014.38
2023-06-04T05:17:14.292Z,1014.41
2023-06-04T05:18:14.245Z,1014.49
2023-06-04T05:19:14.282Z,1014.42
2023-06-04T05:20:14.225Z,1014.43
2023-06-04T05:21:14.220Z,1014.50
2023-06-04T05:22:14.236Z,1014.48
2023-06-04T05:23:14.187Z,1014.48
2023-06-04T05:24:14.202Z,1014.47
2023-06-04T05:25:14.209Z,1014.51
2023-06-04T05:26:14.155Z,1014.41
2023-06-04T05:27:14.139Z,1014.48
2023-06-04T05:28:14.136Z,1014.52
2023-06-04T05:29:14.123Z,1014.54
2023-06-04T05:30:14.117Z,1014.49
2023-06-04T05:31:14.204Z,1014.52
2023-06-04T05:32:14.092Z,1014.54
2023-06-04T05:33:14.073Z,1014.51
2023-06-04T05:34:14.073Z,1014.52
2023-06-04T05:35:14.089Z,1014.51
2023-06-04T05:36:14.090Z,1014.52
2023-06-04T05:37:14.240Z,1014.48
2023-06-04T05:38:14.029Z,1014.46
2023-06-04T05:39:14.015Z,1014.47
2023-06-04T05:40:14.037Z,1014.43
2023-06-04T05:41:14.031Z,1014.44
2023-06-04T05:42:14.036Z,1014.44
2023-06-04T05:43:14.045Z,1014.46
2023-06-04T05:44:13.957Z,1014.37
2023-06-04T05:45:13.963Z,1014.41
2023-06-04T05:46:14.009Z,1014.42
2023-06-04T05:47:13.956Z,1014.41
2023-06-04T05:48:13.993Z,1014.43
2023-06-04T05:49:13.918Z,1014.45
2023-06-04T05:50:13.897Z,1014.45
2023-06-04T05:51:13.890Z,1014.47
2023-06-04T05:52:13.929Z,1014.43
2023-06-04T05:53:13.885Z,1014.45
2023-06-04T05:54:13.857Z,1014.46
2023-06-04T05:55:13.888Z,1014.40
2023-06-04T05:56:13.832Z,1014.40
2023-06-04T05:57:13.835Z,1014.45
2023-06-04T05:58:13.828Z,1014.44
2023-06-04T05:59:13.851Z,1014.49
2023-06-04T06:00:13.787Z,1014.51
2023-06-04T06:01:13.774Z,1014.50
2023-06-04T06:02:13.795Z,1014.49
2023-06-04T06:03:14.027Z,1014.55
2023-06-04T06:04:13.918Z,1014.51
2023-06-04T06:05:13.733Z,1014.51
2023-06-04T06:06:13.761Z,1014.58
2023-06-04T06:07:13.787Z,1014.53
2023-06-04T06:08:13.739Z,1014.60
2023-06-04T06:09:13.695Z,1014.56
2023-06-04T06:10:13.695Z,1014.58
2023-06-04T06:11:14.014Z,1014.53
2023-06-04T06:12:13.689Z,1014.55
2023-06-04T06:13:13.708Z,1014.56
2023-06-04T06:14:13.689Z,1014.61
2023-06-04T06:15:13.630Z,1014.61
2023-06-04T06:16:13.667Z,1014.64
2023-06-04T06:17:13.600Z,1014.63
2023-06-04T06:18:13.605Z,1014.65
2023-06-04T06:19:13.777Z,1014.65
2023-06-04T06:20:14.028Z,1014.69
2023-06-04T06:21:13.575Z,1014.63
2023-06-04T06:22:13.569Z,1014.68
2023-06-04T06:23:13.536Z,1014.67
2023-06-04T06:24:13.534Z,1014.68
2023-06-04T06:25:13.600Z,1014.69
2023-06-04T06:26:13.691Z,1014.74
2023-06-04T06:27:13.495Z,1014.71
2023-06-04T06:28:13.487Z,1014.68
2023-06-04T06:29:13.534Z,1014.70
2023-06-04T06:30:13.506Z,1014.68
2023-06-04T06:31:13.482Z,1014.62
2023-06-04T06:32:13.446Z,1014.68
2023-06-04T06:33:13.447Z,1014.64
2023-06-04T06:34:13.482Z,1014.65
2023-06-04T06:35:13.460Z,1014.65
2023-06-04T06:36:13.530Z,1014.72
2023-06-04T06:37:13.389Z,1014.70
2023-06-04T06:38:13.456Z,1014.67
2023-06-04T06:39:13.526Z,1014.72
2023-06-04T06:40:13.369Z,1014.79
2023-06-04T06:41:13.359Z,1014.76
2023-06-04T06:42:13.352Z,1014.77
2023-06-04T06:43:13.408Z,1014.82
2023-06-04T06:44:13.323Z,1014.80
2023-06-04T06:45:13.310Z,1014.79
2023-06-04T06:46:16.561Z,1014.78
2023-06-04T06:47:13.443Z,1014.81
2023-06-04T06:48:13.310Z,1014.83
2023-06-04T06:49:13.269Z,1014.76
2023-06-04T06:50:13.269Z,1014.79
2023-06-04T06:51:13.272Z,1014.82
2023-06-04T06:52:13.530Z,1014.79
2023-06-04T06:53:13.263Z,1014.85
2023-06-04T06:54:13.262Z,1014.84
2023-06-04T06:55:13.197Z,1014.81
2023-06-04T06:56:13.220Z,1014.84
2023-06-04T06:57:13.178Z,1014.84
2023-06-04T06:58:13.253Z,1014.78
2023-06-04T06:59:13.162Z,1014.87
2023-06-04T07:00:13.177Z,1014.88
2023-06-04T07:01:13.194Z,1014.90
2023-06-04T07:02:13.180Z,1014.91
2023-06-04T07:03:13.156Z,1014.92
2023-06-04T07:04:13.156Z,1014.94
2023-06-04T07:05:13.105Z,1014.93
2023-06-04T07:06:13.088Z,1014.93
2023-06-04T07:07:13.067Z,1014.95
2023-06-04T07:08:13.069Z,1014.88
2023-06-04T07:09:13.102Z,1014.87
2023-06-04T07:10:13.046Z,1014.93
2023-06-04T07:11:13.257Z,1014.89
2023-06-04T07:12:13.024Z,1014.93
2023-06-04T07:13:13.000Z,1014.91
2023-06-04T07:14:13.008Z,1014.92
2023-06-04T07:15:13.014Z,1014.88
2023-06-04T07:16:12.996Z,1014.94
2023-06-04T07:17:12.971Z,1014.89
2023-06-04T07:18:12.967Z,1014.89
2023-06-04T07:19:12.940Z,1014.93
2023-06-04T07:20:12.968Z,1014.92
2023-06-04T07:21:12.916Z,1014.94
2023-06-04T07:22:12.932Z,1014.93
2023-06-04T07:23:12.936Z,1014.90
2023-06-04T07:24:12.974Z,1014.96
2023-06-04T07:25:12.902Z,1014.95
2023-06-04T07:26:12.891Z,1014.95
2023-06-04T07:27:12.893Z,1014.96
2023-06-04T07:28:12.874Z,1015.02
2023-06-04T07:29:12.829Z,1014.94
2023-06-04T07:30:13.305Z,1014.97
2023-06-04T07:31:12.808Z,1014.99
2023-06-04T07:32:12.839Z,1014.99
2023-06-04T07:33:12.815Z,1014.92
2023-06-04T07:34:12.797Z,1014.90
2023-06-04T07:35:12.764Z,1014.89
2023-06-04T07:36:12.762Z,1014.93
2023-06-04T07:37:12.742Z,1014.94
2023-06-04T07:38:14.058Z,1014.91
2023-06-04T07:39:12.737Z,1014.96
2023-06-04T07:40:12.715Z,1014.92
2023-06-04T07:41:12.703Z,1014.94
2023-06-04T07:42:12.711Z,1014.94
2023-06-04T07:43:12.682Z,1015.01
2023-06-04T07:44:12.715Z,1014.97
2023-06-04T07:45:12.771Z,1014.92
2023-06-04T07:46:12.737Z,1014.97
2023-06-04T07:47:12.643Z,1014.95
2023-06-04T07:48:12.690Z,1014.99
2023-06-04T07:49:12.682Z,1014.97
2023-06-04T07:50:12.619Z,1014.97
2023-06-04T07:51:12.606Z,1014.99
2023-06-04T07:52:12.623Z,1014.99
2023-06-04T07:53:12.575Z,1014.96
2023-06-04T07:54:12.672Z,1015.01
2023-06-04T07:55:12.549Z,1014.99
2023-06-04T07:56:12.631Z,1014.96
2023-06-04T07:57:12.564Z,1014.97
2023-06-04T07:58:12.609Z,1014.94
2023-06-04T07:59:12.513Z,1014.95
2023-06-04T08:00:12.506Z,1014.98
2023-06-04T08:01:12.494Z,1015.02
2023-06-04T08:02:12.481Z,1014.96
2023-06-04T08:03:12.619Z,1014.96
2023-06-04T08:04:12.708Z,1014.98
2023-06-04T08:05:12.442Z,1014.99
2023-06-04T08:06:12.439Z,1015.00
2023-06-04T08:07:12.423Z,1014.97
2023-06-04T08:08:12.515Z,1015.01
2023-06-04T08:09:12.399Z,1014.95
2023-06-04T08:10:12.406Z,1014.99
2023-06-04T08:11:12.384Z,1014.96
2023-06-04T08:12:12.376Z,1014.99
2023-06-04T08:13:12.818Z,1015.02
2023-06-04T08:14:12.393Z,1015.01
2023-06-04T08:15:12.342Z,1015.00
2023-06-04T08:16:12.360Z,1014.97
2023-06-04T08:17:12.321Z,1014.95
2023-06-04T08:18:12.368Z,1014.97
2023-06-04T08:19:12.376Z,1014.97
2023-06-04T08:20:12.291Z,1014.99
2023-06-04T08:21:12.277Z,1014.95
2023-06-04T08:22:12.324Z,1014.97
2023-06-04T08:23:12.264Z,1014.97
2023-06-04T08:24:15.467Z,1014.98
2023-06-04T08:25:12.251Z,1014.95
2023-06-04T08:26:12.271Z,1014.95
2023-06-04T08:27:12.236Z,1014.96
2023-06-04T08:28:12.208Z,1014.98
2023-06-04T08:29:12.187Z,1014.98
2023-06-04T08:30:14.117Z,1015.03
2023-06-04T08:31:12.230Z,1015.01
2023-06-04T08:32:12.287Z,1015.03
2023-06-04T08:33:12.480Z,1015.00
2023-06-04T08:34:12.174Z,1015.06
2023-06-04T08:35:12.126Z,1015.05
2023-06-04T08:36:12.119Z,1015.06
2023-06-04T08:37:12.122Z,1015.05
2023-06-04T08:38:12.099Z,1015.10
2023-06-04T08:39:12.097Z,1015.08
2023-06-04T08:40:12.115Z,1015.05
2023-06-04T08:41:12.056Z,1015.06
2023-06-04T08:42:12.059Z,1015.07
2023-06-04T08:43:12.039Z,1015.07
2023-06-04T08:44:12.073Z,1015.02
2023-06-04T08:45:12.052Z,1015.12
2023-06-04T08:46:12.071Z,1015.08
2023-06-04T08:47:11.995Z,1015.02
2023-06-04T08:48:12.051Z,1015.02
2023-06-04T08:49:11.978Z,1015.06
2023-06-04T08:50:11.989Z,1015.02
2023-06-04T08:51:11.961Z,1015.07
2023-06-04T08:52:11.956Z,1015.03
2023-06-04T08:53:11.989Z,1015.07
2023-06-04T08:54:12.689Z,1015.07
2023-06-04T08:55:13.817Z,1015.03
2023-06-04T08:56:11.907Z,1015.04
2023-06-04T08:57:13.006Z,1015.12
2023-06-04T08:58:11.886Z,1015.03
2023-06-04T08:59:11.928Z,1015.05
2023-06-04T09:00:13.694Z,1015.03
2023-06-04T09:01:11.931Z,1015.04
2023-06-04T09:02:11.835Z,1015.04
2023-06-04T09:03:11.941Z,1014.96
2023-06-04T09:04:13.427Z,1014.98
2023-06-04T09:05:11.813Z,1014.98
2023-06-04T09:06:12.531Z,1015.02
2023-06-04T09:07:11.783Z,1015.01
2023-06-04T09:08:11.774Z,1015.00
2023-06-04T09:09:11.868Z,1015.00
2023-06-04T09:10:14.174Z,1014.95
2023-06-04T09:11:11.749Z,1014.93
2023-06-04T09:12:11.734Z,1014.97
2023-06-04T09:13:11.740Z,1014.96
2023-06-04T09:14:11.727Z,1015.02
2023-06-04T09:15:11.701Z,1014.98
2023-06-04T09:16:11.761Z,1014.94
2023-06-04T09:17:11.685Z,1014.99
2023-06-04T09:18:11.682Z,1015.00
2023-06-04T09:19:11.661Z,1014.94
2023-06-04T09:20:11.642Z,1014.96
2023-06-04T09:21:11.678Z,1014.95
2023-06-04T09:22:11.658Z,1015.00
2023-06-04T09:23:11.616Z,1014.98
2023-06-04T09:24:11.598Z,1014.98
2023-06-04T09:25:11.619Z,1014.98
2023-06-04T09:26:11.577Z,1014.97
2023-06-04T09:27:11.619Z,1015.02
2023-06-04T09:28:11.554Z,1015.01
2023-06-04T09:29:11.553Z,1015.04
2023-06-04T09:30:15.596Z,1015.00
2023-06-04T09:31:11.590Z,1015.01
2023-06-04T09:32:11.882Z,1015.02
2023-06-04T09:33:11.547Z,1014.96
2023-06-04T09:34:11.492Z,1015.07
2023-06-04T09:35:11.495Z,1015.01
2023-06-04T09:36:11.486Z,1015.01
2023-06-04T09:37:11.464Z,1014.97
2023-06-04T09:38:11.532Z,1014.99
2023-06-04T09:39:11.448Z,1015.07
2023-06-04T09:40:11.473Z,1015.02
2023-06-04T09:41:11.428Z,1015.09
2023-06-04T09:42:11.453Z,1015.04
2023-06-04T09:43:11.404Z,1015.06
2023-06-04T09:44:11.383Z,1015.04
2023-06-04T09:45:11.494Z,1014.95
2023-06-04T09:46:11.418Z,1015.04
2023-06-04T09:47:11.375Z,1015.01
2023-06-04T09:48:11.444Z,1014.92
2023-06-04T09:49:11.343Z,1015.05
2023-06-04T09:50:11.325Z,1014.98
2023-06-04T09:51:12.778Z,1015.05
2023-06-04T09:52:11.300Z,1015.06
2023-06-04T09:53:11.324Z,1015.01
2023-06-04T09:54:11.714Z,1015.03
2023-06-04T09:55:11.275Z,1014.97
2023-06-04T09:56:11.274Z,1014.99
2023-06-04T09:57:11.252Z,1014.99
2023-06-04T09:58:11.252Z,1015.01
2023-06-04T09:59:11.306Z,1015.00
2023-06-04T10:00:11.225Z,1014.99
2023-06-04T10:01:12.964Z,1014.97
2023-06-04T10:02:11.304Z,1014.99
2023-06-04T10:03:11.288Z,1014.99
2023-06-04T10:04:11.270Z,1014.96
2023-06-04T10:05:11.174Z,1015.00
2023-06-04T10:06:11.393Z,1014.96
2023-06-04T10:07:11.165Z,1014.97
2023-06-04T10:08:11.138Z,1014.98
2023-06-04T10:09:11.129Z,1015.01
2023-06-04T10:10:11.143Z,1015.00
2023-06-04T10:11:11.124Z,1014.97
2023-06-04T10:12:11.084Z,1015.02
2023-06-04T10:13:11.095Z,1014.98
2023-06-04T10:14:11.089Z,1015.00
2023-06-04T10:15:11.067Z,1015.03
2023-06-04T10:16:21.235Z,1014.97
2023-06-04T10:17:12.108Z,1014.95
2023-06-04T10:18:11.052Z,1014.85
2023-06-04T10:19:11.021Z,1014.94
2023-06-04T10:20:11.056Z,1014.91
2023-06-04T10:21:11.001Z,1014.91
2023-06-04T10:22:10.994Z,1014.91
2023-06-04T10:23:10.985Z,1014.90
2023-06-04T10:24:11.057Z,1014.90
2023-06-04T10:25:10.966Z,1014.90
2023-06-04T10:26:11.289Z,1014.87
2023-06-04T10:27:10.970Z,1014.85
2023-06-04T10:28:10.926Z,1014.76
2023-06-04T10:29:10.979Z,1014.87
2023-06-04T10:30:10.918Z,1014.91
2023-06-04T10:31:10.899Z,1014.88
2023-06-04T10:32:10.992Z,1014.85
2023-06-04T10:33:10.947Z,1014.85
2023-06-04T10:34:11.790Z,1014.85
2023-06-04T10:35:10.866Z,1014.84
2023-06-04T10:36:10.897Z,1014.82
2023-06-04T10:37:11.086Z,1014.80
2023-06-04T10:38:10.827Z,1014.89
2023-06-04T10:39:10.819Z,1014.84
2023-06-04T10:40:10.797Z,1014.87
2023-06-04T10:41:10.791Z,1014.84
2023-06-04T10:42:10.822Z,1014.88
2023-06-04T10:43:10.802Z,1014.92
2023-06-04T10:44:10.776Z,1014.87
2023-06-04T10:45:10.877Z,1014.86
2023-06-04T10:46:10.742Z,1014.84
2023-06-04T10:47:10.762Z,1014.89
2023-06-04T10:48:10.777Z,1014.87
2023-06-04T10:49:10.713Z,1014.88
2023-06-04T10:50:10.710Z,1014.87
2023-06-04T10:51:10.719Z,1014.87
2023-06-04T10:52:10.742Z,1014.84
2023-06-04T10:53:10.667Z,1014.81
2023-06-04T10:54:10.660Z,1014.87
2023-06-04T10:55:10.639Z,1014.84
2023-06-04T10:56:10.635Z,1014.81
2023-06-04T10:57:10.653Z,1014.85
2023-06-04T10:58:10.607Z,1014.80
2023-06-04T10:59:10.606Z,1014.77
2023-06-04T11:00:10.599Z,1014.82
2023-06-04T11:01:10.805Z,1014.87
2023-06-04T11:02:10.625Z,1014.83
2023-06-04T11:03:10.946Z,1014.78
2023-06-04T11:04:10.604Z,1014.80
2023-06-04T11:05:10.557Z,1014.82
2023-06-04T11:06:10.519Z,1014.79
2023-06-04T11:07:10.953Z,1014.78
2023-06-04T11:08:10.509Z,1014.80
2023-06-04T11:09:10.523Z,1014.86
2023-06-04T11:10:10.480Z,1014.86
2023-06-04T11:11:10.475Z,1014.86
2023-06-04T11:12:10.502Z,1014.82
2023-06-04T11:13:10.453Z,1014.83
2023-06-04T11:14:10.506Z,1014.82
2023-06-04T11:15:10.443Z,1014.82
2023-06-04T11:16:10.443Z,1014.80
2023-06-04T11:17:10.499Z,1014.72
2023-06-04T11:18:10.569Z,1014.74
2023-06-04T11:19:10.379Z,1014.66
2023-06-04T11:20:10.369Z,1014.67
2023-06-04T11:21:10.506Z,1014.68
2023-06-04T11:22:10.339Z,1014.67
2023-06-04T11:23:10.390Z,1014.72
2023-06-04T11:24:10.372Z,1014.72
2023-06-04T11:25:10.340Z,1014.71
2023-06-04T11:26:10.312Z,1014.63
2023-06-04T11:27:17.570Z,1014.64
2023-06-04T11:28:11.529Z,1014.68
2023-06-04T11:29:10.277Z,1014.70
2023-06-04T11:30:10.258Z,1014.74
2023-06-04T11:31:10.535Z,1014.69
2023-06-04T11:32:10.275Z,1014.68
2023-06-04T11:33:10.265Z,1014.68
2023-06-04T11:34:10.388Z,1014.54
2023-06-04T11:35:10.210Z,1014.67
2023-06-04T11:36:11.912Z,1014.65
2023-06-04T11:37:10.191Z,1014.64
2023-06-04T11:38:10.551Z,1014.61
2023-06-04T11:39:10.225Z,1014.64
2023-06-04T11:40:10.176Z,1014.62
2023-06-04T11:41:10.230Z,1014.58
2023-06-04T11:42:10.138Z,1014.61
2023-06-04T11:43:10.124Z,1014.60
2023-06-04T11:44:11.283Z,1014.58
2023-06-04T11:45:10.103Z,1014.56
2023-06-04T11:46:11.009Z,1014.56
2023-06-04T11:47:10.122Z,1014.54
2023-06-04T11:48:10.204Z,1014.58
2023-06-04T11:49:10.123Z,1014.59
2023-06-04T11:50:10.602Z,1014.55
2023-06-04T11:51:10.160Z,1014.56
2023-06-04T11:52:10.030Z,1014.54
2023-06-04T11:53:10.593Z,1014.54
2023-06-04T11:54:10.019Z,1014.57
2023-06-04T11:55:10.028Z,1014.55
2023-06-04T11:56:10.015Z,1014.57
2023-06-04T11:57:09.973Z,1014.59
2023-06-04T11:58:09.978Z,1014.61
2023-06-04T11:59:10.075Z,1014.56
2023-06-04T12:00:09.947Z,1014.56
2023-06-04T12:01:10.073Z,1014.52
2023-06-04T12:02:09.937Z,1014.47
2023-06-04T12:03:10.015Z,1014.60
2023-06-04T12:04:09.899Z,1014.58
2023-06-04T12:05:11.299Z,1014.59